Time;durP1;ratioP1;P1;durP2;ratioP2;P2;SDS_P1;SDS_P2;PMS_P1;PMS_P2;Temp;Humidity;BMP_temperature;BMP_pressure;BME280_temperature;BME280_humidity;BME280_pressure;Samples;Min_cycle;Max_cycle;Signal;HPM_P1;HPM_P2
2021/04/21 00:02:16;;;;;;;11.63;8.77;;;10.70;99.90;;;;;;5052952;28;20477;-81
2021/04/21 00:04:44;;;;;;;11.80;9.83;;;10.70;99.90;;;;;;5054139;28;20500;-80
2021/04/21 00:07:11;;;;;;;12.53;9.43;;;10.70;99.90;;;;;;5049530;28;20458;-81
2021/04/21 00:09:39;;;;;;;13.20;9.40;;;10.70;99.90;;;;;;5053804;28;20469;-82
2021/04/21 00:12:08;;;;;;;11.40;9.00;;;10.70;99.90;;;;;;5053396;28;20463;-81
2021/04/21 00:14:35;;;;;;;11.37;8.93;;;10.70;99.90;;;;;;5066037;28;21045;-81
2021/04/21 00:17:05;;;;;;;12.50;9.33;;;10.70;99.90;;;;;;5052804;28;20645;-81
2021/04/21 00:19:36;;;;;;;11.63;9.23;;;10.70;99.90;;;;;;5040979;28;20470;-80
2021/04/21 00:22:05;;;;;;;10.10;9.03;;;10.70;99.90;;;;;;5040843;28;20507;-81
2021/04/21 00:24:35;;;;;;;12.07;10.20;;;10.70;99.90;;;;;;5052985;28;20482;-83
2021/04/21 00:27:04;;;;;;;10.77;8.83;;;10.60;99.90;;;;;;5052287;28;20470;-81
2021/04/21 00:29:36;;;;;;;15.60;10.43;;;10.60;99.90;;;;;;5058975;28;20454;-81
2021/04/21 00:32:05;;;;;;;11.20;8.77;;;10.60;99.90;;;;;;5041763;28;20471;-81
2021/04/21 00:34:34;;;;;;;10.77;9.60;;;10.50;99.90;;;;;;5044067;28;22088;-81
2021/04/21 00:37:03;;;;;;;9.17;8.20;;;10.50;99.90;;;;;;5039993;28;20822;-82
2021/04/21 00:39:32;;;;;;;13.03;9.40;;;10.50;99.90;;;;;;5040321;28;20465;-81
2021/04/21 00:42:06;;;;;;;11.70;9.20;;;10.50;99.90;;;;;;5043299;28;20493;-81
2021/04/21 00:44:41;;;;;;;11.73;8.77;;;10.50;99.90;;;;;;5053219;28;20506;-82
2021/04/21 00:47:11;;;;;;;11.07;8.60;;;10.70;99.90;;;;;;5051383;28;20459;-81
2021/04/21 00:49:50;;;;;;;11.50;8.70;;;10.40;99.90;;;;;;5041668;28;20462;-80
2021/04/21 00:52:21;;;;;;;10.30;9.00;;;10.40;99.90;;;;;;5040175;28;20458;-80
2021/04/21 00:55:00;;;;;;;14.50;9.60;;;10.30;99.90;;;;;;5057831;28;21467;-81
2021/04/21 00:57:38;;;;;;;14.03;9.60;;;10.30;99.90;;;;;;5051656;28;20455;-79
2021/04/21 01:00:09;;;;;;;9.97;8.97;;;10.40;99.90;;;;;;5055367;28;20466;-80
2021/04/21 01:02:40;;;;;;;10.80;8.73;;;10.30;99.90;;;;;;5057066;28;20472;-78
2021/04/21 01:05:14;;;;;;;10.80;8.63;;;10.30;99.90;;;;;;5047902;28;20545;-80
2021/04/21 01:07:45;;;;;;;11.63;9.10;;;10.20;99.90;;;;;;5048797;28;20467;-79
2021/04/21 01:10:15;;;;;;;11.60;9.47;;;10.20;99.90;;;;;;5057390;28;20983;-79
2021/04/21 01:12:45;;;;;;;13.43;9.00;;;10.20;99.90;;;;;;5050649;28;20979;-81
2021/04/21 01:15:14;;;;;;;11.77;8.70;;;10.20;99.90;;;;;;5053042;28;20478;-81
2021/04/21 01:17:44;;;;;;;12.63;10.40;;;10.20;99.90;;;;;;5055184;28;20552;-80
2021/04/21 01:20:18;;;;;;;12.90;9.30;;;10.20;99.90;;;;;;5039481;28;20469;-78
2021/04/21 01:23:13;;;;;;;11.87;8.70;;;10.20;99.90;;;;;;5038197;28;21693;-79
2021/04/21 01:26:06;;;;;;;13.50;9.50;;;10.10;99.90;;;;;;5047035;28;20495;-78
2021/04/21 01:28:38;;;;;;;9.13;7.90;;;10.40;99.90;;;;;;5050347;28;20472;-80
2021/04/21 01:31:06;;;;;;;15.97;9.50;;;10.10;99.90;;;;;;5043856;28;20524;-80
2021/04/21 01:33:34;;;;;;;11.73;9.50;;;10.10;99.90;;;;;;5050218;28;20459;-81
2021/04/21 01:36:04;;;;;;;13.70;11.23;;;10.10;99.90;;;;;;5064217;28;20464;-80
2021/04/21 01:38:32;;;;;;;14.20;9.97;;;10.00;99.90;;;;;;5054595;28;21065;-80
2021/04/21 01:41:04;;;;;;;12.83;10.13;;;9.90;99.90;;;;;;5052665;28;20492;-80
2021/04/21 01:43:37;;;;;;;15.27;9.97;;;9.90;99.90;;;;;;5067541;28;20453;-80
2021/04/21 01:46:06;;;;;;;13.80;8.80;;;10.00;99.90;;;;;;5068615;28;20559;-81
2021/04/21 01:48:35;;;;;;;16.03;10.63;;;10.00;99.90;;;;;;5054203;28;20472;-80
2021/04/21 01:51:10;;;;;;;12.13;9.10;;;10.00;99.90;;;;;;5045186;28;20476;-79
2021/04/21 01:53:41;;;;;;;12.63;9.30;;;9.90;99.90;;;;;;5042240;28;20876;-80
2021/04/21 01:56:14;;;;;;;11.23;9.50;;;9.90;99.90;;;;;;5061972;28;20466;-80
2021/04/21 01:58:55;;;;;;;12.40;10.03;;;10.20;99.90;;;;;;5055326;28;20515;-81
2021/04/21 02:01:33;;;;;;;15.00;10.20;;;10.10;99.90;;;;;;5051086;28;20477;-80
2021/04/21 02:04:06;;;;;;;13.00;9.70;;;9.80;99.90;;;;;;5056778;28;20550;-80
2021/04/21 02:06:56;;;;;;;12.83;8.73;;;9.80;99.90;;;;;;5057514;28;20472;-81
2021/04/21 02:10:03;;;;;;;12.63;9.73;;;9.80;99.90;;;;;;5054350;28;21169;-80
2021/04/21 02:12:48;;;;;;;11.90;8.50;;;9.80;99.90;;;;;;5048695;28;20489;-80
2021/04/21 02:15:22;;;;;;;12.37;9.53;;;9.70;99.90;;;;;;5053144;28;21155;-79
2021/04/21 02:17:56;;;;;;;15.03;10.00;;;9.70;99.90;;;;;;5054458;28;20460;-78
2021/04/21 02:20:31;;;;;;;13.20;10.00;;;9.70;99.90;;;;;;5045432;28;21280;-77
2021/04/21 02:23:02;;;;;;;10.50;9.07;;;9.80;99.90;;;;;;5037936;28;20471;-79
2021/04/21 02:25:45;;;;;;;15.87;12.23;;;9.80;99.90;;;;;;5050501;28;20483;-80
2021/04/21 02:28:20;;;;;;;20.50;13.83;;;9.80;99.90;;;;;;5046738;28;20457;-78
2021/04/21 02:30:56;;;;;;;18.40;11.77;;;9.70;99.90;;;;;;5060617;28;20504;-80
2021/04/21 02:33:34;;;;;;;12.17;9.50;;;9.60;99.90;;;;;;5050083;28;20462;-78
2021/04/21 02:36:04;;;;;;;10.50;8.73;;;9.60;99.90;;;;;;5043704;28;20539;-80
2021/04/21 02:38:37;;;;;;;10.90;9.27;;;9.50;99.90;;;;;;5059941;28;20459;-82
2021/04/21 02:41:12;;;;;;;11.73;9.07;;;9.80;99.90;;;;;;5055710;28;20487;-79
2021/04/21 02:44:06;;;;;;;12.73;7.90;;;9.80;99.90;;;;;;5058002;28;20553;-80
2021/04/21 02:46:43;;;;;;;10.60;8.40;;;9.50;99.90;;;;;;5061024;28;20531;-80
2021/04/21 02:49:23;;;;;;;12.97;8.73;;;9.50;99.90;;;;;;5059214;28;20468;-81
2021/04/21 02:52:00;;;;;;;10.13;8.47;;;9.40;99.90;;;;;;5047521;28;20516;-80
2021/04/21 02:54:38;;;;;;;11.03;8.60;;;9.40;99.90;;;;;;5049908;28;20539;-81
2021/04/21 02:57:10;;;;;;;12.50;9.23;;;9.40;99.90;;;;;;5059941;28;20456;-80
2021/04/21 02:59:42;;;;;;;13.13;9.03;;;9.40;99.90;;;;;;5062078;28;20460;-79
2021/04/21 03:02:15;;;;;;;11.07;9.13;;;9.40;99.90;;;;;;5050251;28;20499;-81
2021/04/21 03:04:49;;;;;;;13.80;9.00;;;9.40;99.90;;;;;;5054104;28;20488;-81
2021/04/21 03:07:22;;;;;;;10.87;8.67;;;9.40;99.90;;;;;;5056031;28;20796;-78
2021/04/21 03:09:54;;;;;;;9.27;8.23;;;9.40;99.90;;;;;;5054443;28;20463;-79
2021/04/21 03:12:27;;;;;;;11.20;8.87;;;9.30;99.90;;;;;;5048385;28;20467;-80
2021/04/21 03:14:58;;;;;;;13.23;8.63;;;9.30;99.90;;;;;;5052628;28;21043;-77
2021/04/21 03:17:27;;;;;;;12.20;9.03;;;9.30;99.90;;;;;;5058263;28;21152;-80
2021/04/21 03:19:59;;;;;;;13.63;9.40;;;9.20;99.90;;;;;;5044905;28;21528;-79
2021/04/21 03:22:30;;;;;;;9.60;8.30;;;9.20;99.90;;;;;;5039124;28;20483;-79
2021/04/21 03:25:01;;;;;;;11.03;8.40;;;9.20;99.90;;;;;;5048069;28;20494;-80
2021/04/21 03:27:33;;;;;;;9.50;8.30;;;9.20;99.90;;;;;;5056033;28;20476;-80
2021/04/21 03:30:04;;;;;;;11.97;8.90;;;9.20;99.90;;;;;;5039261;28;20989;-80
2021/04/21 03:32:37;;;;;;;10.97;8.77;;;9.20;99.90;;;;;;5047965;28;20472;-79
2021/04/21 03:35:07;;;;;;;13.27;9.63;;;9.20;99.90;;;;;;5057214;28;20478;-78
2021/04/21 03:37:42;;;;;;;12.47;9.43;;;9.20;99.90;;;;;;5054106;28;20473;-80
2021/04/21 03:40:11;;;;;;;11.73;9.50;;;9.20;99.90;;;;;;5055951;28;21585;-79
2021/04/21 03:42:39;;;;;;;10.07;8.70;;;9.20;99.90;;;;;;5050629;28;21994;-79
2021/04/21 03:45:07;;;;;;;11.20;9.13;;;9.20;99.90;;;;;;5055307;28;20662;-80
2021/04/21 03:47:36;;;;;;;12.27;8.80;;;9.20;99.90;;;;;;5037391;28;20467;-79
2021/04/21 03:50:05;;;;;;;15.27;8.93;;;9.20;99.90;;;;;;5036526;28;20464;-79
2021/04/21 03:52:35;;;;;;;11.60;9.10;;;9.20;99.90;;;;;;5036250;28;20467;-77
2021/04/21 03:55:02;;;;;;;10.40;8.67;;;9.10;99.90;;;;;;5043565;28;20228;-77
2021/04/21 03:57:31;;;;;;;12.77;8.37;;;9.10;99.90;;;;;;5050171;28;20454;-78
2021/04/21 04:00:00;;;;;;;9.20;8.10;;;9.20;99.90;;;;;;5049405;28;20465;-80
2021/04/21 04:02:32;;;;;;;10.30;8.97;;;9.10;99.90;;;;;;5057675;28;20478;-79
2021/04/21 04:05:04;;;;;;;11.90;8.80;;;9.10;99.90;;;;;;5043986;28;21021;-81
2021/04/21 04:07:37;;;;;;;10.23;7.50;;;9.10;99.90;;;;;;5048710;28;20502;-81
2021/04/21 04:10:08;;;;;;;10.10;7.73;;;8.80;99.90;;;;;;5044744;28;21108;-79
2021/04/21 04:12:37;;;;;;;11.53;9.57;;;9.10;99.90;;;;;;5054899;28;20462;-81
2021/04/21 04:15:08;;;;;;;10.50;7.67;;;9.00;99.90;;;;;;5059330;28;20541;-81
2021/04/21 04:17:38;;;;;;;10.40;7.73;;;9.00;99.90;;;;;;5052028;28;20473;-81
2021/04/21 04:20:08;;;;;;;12.93;8.30;;;9.00;99.90;;;;;;5047729;28;20488;-76
2021/04/21 04:22:38;;;;;;;12.30;8.60;;;9.00;99.90;;;;;;5037617;28;20492;-79
2021/04/21 04:25:08;;;;;;;12.23;9.07;;;9.00;99.90;;;;;;5047446;28;20503;-76
2021/04/21 04:27:40;;;;;;;10.43;8.63;;;9.00;99.90;;;;;;5056277;28;20559;-79
2021/04/21 04:30:09;;;;;;;9.57;8.57;;;9.00;99.90;;;;;;5047629;28;20455;-80
2021/04/21 04:32:40;;;;;;;12.03;9.73;;;9.00;99.90;;;;;;5061716;28;21022;-78
2021/04/21 04:35:11;;;;;;;12.40;9.30;;;8.90;99.90;;;;;;5055394;28;20503;-76
2021/04/21 04:37:40;;;;;;;14.07;9.70;;;8.90;99.90;;;;;;5056255;28;20472;-79
2021/04/21 04:40:10;;;;;;;15.70;9.57;;;8.90;99.90;;;;;;5046994;28;20457;-77
2021/04/21 04:42:38;;;;;;;14.27;9.40;;;8.80;99.90;;;;;;5050574;28;20492;-78
2021/04/21 04:45:07;;;;;;;12.70;8.60;;;8.80;99.90;;;;;;5060797;28;20488;-77
2021/04/21 04:47:42;;;;;;;17.73;12.10;;;8.80;99.90;;;;;;5054303;28;20473;-80
2021/04/21 04:50:13;;;;;;;13.80;11.87;;;8.80;99.90;;;;;;5049107;28;20467;-78
2021/04/21 04:52:42;;;;;;;17.03;12.57;;;8.70;99.90;;;;;;5046818;28;20490;-78
2021/04/21 04:55:11;;;;;;;14.20;11.10;;;8.70;99.90;;;;;;5059718;28;21038;-76
2021/04/21 04:57:40;;;;;;;13.13;10.17;;;8.80;99.90;;;;;;5056252;28;20476;-80
2021/04/21 05:00:09;;;;;;;13.63;9.30;;;8.80;99.90;;;;;;5061775;28;22260;-77
2021/04/21 05:02:40;;;;;;;11.03;9.20;;;8.80;99.90;;;;;;5053585;28;20482;-79
2021/04/21 05:05:09;;;;;;;14.50;9.50;;;8.80;99.90;;;;;;5048115;28;20483;-76
2021/04/21 05:07:42;;;;;;;13.30;9.53;;;8.90;99.90;;;;;;5046929;28;20467;-77
2021/04/21 05:10:17;;;;;;;13.63;9.60;;;8.90;99.90;;;;;;5046247;28;20538;-78
2021/04/21 05:12:47;;;;;;;11.90;9.57;;;8.90;99.90;;;;;;5046358;28;20458;-81
2021/04/21 05:15:59;;;;;;;14.40;11.03;;;8.90;99.90;;;;;;5048096;28;20491;-81
2021/04/21 05:18:51;;;;;;;12.93;10.33;;;9.00;99.90;;;;;;5003325;28;21059;-80
2021/04/21 05:21:55;;;;;;;15.17;10.67;;;9.00;99.90;;;;;;5042748;28;20476;-74
2021/04/21 05:25:19;;;;;;;13.70;10.50;;;9.00;99.90;;;;;;5047305;28;20502;-77
2021/04/21 05:28:29;;;;;;;12.93;9.73;;;9.00;99.90;;;;;;5048593;28;20468;-77
2021/04/21 05:31:16;;;;;;;13.00;9.40;;;8.90;99.90;;;;;;5041043;28;20470;-80
2021/04/21 05:34:38;;;;;;;15.30;11.47;;;9.00;99.90;;;;;;5045669;28;20560;-79
2021/04/21 05:37:45;;;;;;;15.37;9.87;;;9.00;99.90;;;;;;5037526;28;20459;-79
2021/04/21 05:40:55;;;;;;;12.10;10.83;;;9.10;99.90;;;;;;5042515;28;21052;-79
2021/04/21 05:44:23;;;;;;;11.93;10.10;;;9.10;99.90;;;;;;5040454;28;20475;-80
2021/04/21 05:47:26;;;;;;;15.47;11.07;;;9.20;99.90;;;;;;5043961;28;20467;-79
2021/04/21 05:50:24;;;;;;;19.50;12.47;;;9.20;99.90;;;;;;5040840;28;20473;-80
2021/04/21 05:53:31;;;;;;;17.77;11.60;;;9.20;99.90;;;;;;5043426;28;20509;-81
2021/04/21 05:56:37;;;;;;;18.80;10.93;;;9.30;99.90;;;;;;5023567;28;20462;-77
2021/04/21 05:59:53;;;;;;;18.13;12.00;;;9.30;99.90;;;;;;5039608;28;20456;-78
2021/04/21 06:02:22;;;;;;;14.30;11.10;;;9.40;99.90;;;;;;5046674;28;21026;-77
2021/04/21 06:05:04;;;;;;;17.20;11.07;;;9.50;99.90;;;;;;5043845;28;20476;-78
2021/04/21 06:07:31;;;;;;;18.50;12.10;;;9.50;99.90;;;;;;5048950;28;20479;-79
2021/04/21 06:09:59;;;;;;;14.47;12.10;;;9.60;99.90;;;;;;5048084;28;20476;-79
2021/04/21 06:12:26;;;;;;;18.10;12.57;;;9.70;99.90;;;;;;5052451;28;20453;-80
2021/04/21 06:14:55;;;;;;;15.73;10.80;;;9.70;99.90;;;;;;5047075;28;20483;-79
2021/04/21 06:17:26;;;;;;;16.53;12.33;;;9.80;99.90;;;;;;5048180;28;21318;-79
2021/04/21 06:19:54;;;;;;;15.10;10.97;;;9.90;99.90;;;;;;5056217;28;20463;-78
2021/04/21 06:22:28;;;;;;;16.13;13.00;;;10.00;99.90;;;;;;5051276;28;20528;-79
2021/04/21 06:25:09;;;;;;;16.50;12.00;;;10.10;99.90;;;;;;5049711;28;20484;-77
2021/04/21 06:27:36;;;;;;;17.50;11.73;;;10.30;99.90;;;;;;5051184;28;20501;-78
2021/04/21 06:30:07;;;;;;;15.03;10.90;;;10.50;99.90;;;;;;5043032;28;20491;-78
2021/04/21 06:32:35;;;;;;;19.20;13.23;;;10.60;99.90;;;;;;5050130;28;21346;-78
2021/04/21 06:35:08;;;;;;;16.93;12.23;;;10.80;99.90;;;;;;5057173;28;20487;-79
2021/04/21 06:37:36;;;;;;;19.70;13.30;;;10.90;99.90;;;;;;5054403;28;20522;-77
2021/04/21 06:40:06;;;;;;;19.33;13.67;;;11.10;99.90;;;;;;5053999;28;20496;-79
2021/04/21 06:42:34;;;;;;;21.73;12.93;;;11.20;99.90;;;;;;5055762;28;21212;-77
2021/04/21 06:45:02;;;;;;;19.95;15.38;;;11.40;99.90;;;;;;5037859;28;20831;-78
2021/04/21 06:47:30;;;;;;;17.00;14.27;;;11.50;99.90;;;;;;5042686;28;20462;-78
2021/04/21 06:50:03;;;;;;;18.43;13.13;;;11.80;99.90;;;;;;5046970;28;20470;-79
2021/04/21 06:52:34;;;;;;;16.33;12.13;;;12.00;99.90;;;;;;5047531;28;20460;-80
2021/04/21 06:55:03;;;;;;;20.23;14.37;;;12.30;99.90;;;;;;5039793;28;20520;-78
2021/04/21 06:57:31;;;;;;;20.50;13.93;;;12.40;99.90;;;;;;5051077;28;20567;-79
2021/04/21 07:00:10;;;;;;;18.50;13.90;;;12.60;99.90;;;;;;5041857;28;20457;-78
2021/04/21 07:02:40;;;;;;;18.10;14.83;;;12.80;99.90;;;;;;5042896;28;20486;-79
2021/04/21 07:05:26;;;;;;;18.83;13.30;;;13.00;99.90;;;;;;5051682;28;20485;-77
2021/04/21 07:08:01;;;;;;;18.40;14.37;;;13.10;99.90;;;;;;5043948;28;20528;-78
2021/04/21 07:10:28;;;;;;;18.60;13.43;;;13.40;99.90;;;;;;5051376;28;20997;-79
2021/04/21 07:12:56;;;;;;;18.00;13.37;;;13.50;99.90;;;;;;5051734;28;20809;-79
2021/04/21 07:15:24;;;;;;;20.93;13.67;;;13.70;99.90;;;;;;5040839;28;20473;-80
2021/04/21 07:17:53;;;;;;;19.60;14.90;;;13.80;99.90;;;;;;5039003;28;20500;-80
2021/04/21 07:20:21;;;;;;;19.57;15.90;;;13.90;99.90;;;;;;5039291;28;20467;-78
2021/04/21 07:22:50;;;;;;;23.27;15.97;;;14.10;99.90;;;;;;5039233;28;20482;-78
2021/04/21 07:25:19;;;;;;;20.43;15.10;;;14.20;99.90;;;;;;5041488;28;20477;-81
2021/04/21 07:27:52;;;;;;;17.93;14.63;;;14.40;99.90;;;;;;5050048;28;20462;-82
2021/04/21 07:30:27;;;;;;;20.07;14.93;;;14.50;99.90;;;;;;5046637;28;20690;-78
2021/04/21 07:32:56;;;;;;;17.03;13.80;;;14.70;99.90;;;;;;5042444;28;20467;-79
2021/04/21 07:35:25;;;;;;;18.50;13.90;;;14.80;99.90;;;;;;5037269;28;21036;-77
2021/04/21 07:37:55;;;;;;;17.83;13.53;;;14.80;99.90;;;;;;5040400;28;20463;-79
2021/04/21 07:40:36;;;;;;;19.60;15.93;;;14.90;99.90;;;;;;5044914;28;20539;-78
2021/04/21 07:43:16;;;;;;;18.17;14.60;;;15.00;99.90;;;;;;5053356;28;20485;-79
2021/04/21 07:45:46;;;;;;;18.30;13.00;;;15.10;99.90;;;;;;5046108;28;20493;-80
2021/04/21 07:48:40;;;;;;;18.43;13.93;;;15.10;99.90;;;;;;5044743;28;20452;-79
2021/04/21 07:51:31;;;;;;;17.52;14.00;;;15.20;99.90;;;;;;5046497;28;20478;-79
2021/04/21 07:54:02;;;;;;;17.90;12.57;;;15.30;99.90;;;;;;5053501;28;20224;-78
2021/04/21 07:56:36;;;;;;;18.13;13.73;;;15.30;99.90;;;;;;5044599;28;20469;-79
2021/04/21 07:59:15;;;;;;;19.07;13.20;;;15.40;99.90;;;;;;5053545;28;20467;-77
2021/04/21 08:01:42;;;;;;;20.57;15.37;;;15.40;99.90;;;;;;5052751;28;20481;-78
2021/04/21 08:04:23;;;;;;;20.00;14.00;;;15.30;99.90;;;;;;5051634;28;20477;-79
2021/04/21 08:06:54;;;;;;;18.00;12.77;;;15.30;99.90;;;;;;5046445;28;20482;-80
2021/04/21 08:09:23;;;;;;;15.40;12.27;;;15.30;99.90;;;;;;5046106;28;20490;-79
2021/04/21 08:12:10;;;;;;;15.60;12.10;;;15.30;99.90;;;;;;5045842;28;20511;-79
2021/04/21 08:14:43;;;;;;;15.30;12.73;;;15.40;99.90;;;;;;5052115;28;20565;-78
2021/04/21 08:17:10;;;;;;;13.53;11.93;;;15.40;99.90;;;;;;5062550;28;20457;-77
2021/04/21 08:19:41;;;;;;;16.00;12.90;;;15.50;99.90;;;;;;5042283;28;20989;-78
2021/04/21 08:22:09;;;;;;;15.80;12.63;;;15.40;99.90;;;;;;5058480;28;20532;-77
2021/04/21 08:24:42;;;;;;;16.50;12.93;;;15.40;99.90;;;;;;5048588;28;20494;-79
2021/04/21 08:27:12;;;;;;;14.70;12.57;;;15.30;99.90;;;;;;5048767;28;20463;-79
2021/04/21 08:29:40;;;;;;;16.00;12.57;;;15.30;99.90;;;;;;5058957;28;20462;-78
2021/04/21 08:32:09;;;;;;;17.30;13.53;;;15.40;99.90;;;;;;5050123;28;20453;-80
2021/04/21 08:34:37;;;;;;;15.67;13.07;;;15.40;99.90;;;;;;5047486;28;21250;-79
2021/04/21 08:37:05;;;;;;;15.50;13.03;;;15.50;99.90;;;;;;5048029;28;20468;-80
2021/04/21 08:39:37;;;;;;;16.93;11.60;;;15.60;99.90;;;;;;5047597;28;20556;-80
2021/04/21 08:42:07;;;;;;;19.30;13.53;;;15.70;99.90;;;;;;5058991;28;21003;-78
2021/04/21 08:44:40;;;;;;;17.30;13.70;;;15.70;99.90;;;;;;5043157;28;20542;-80
2021/04/21 08:47:09;;;;;;;15.87;12.27;;;15.70;99.90;;;;;;5042372;28;20500;-78
2021/04/21 08:49:39;;;;;;;12.63;11.00;;;15.80;99.90;;;;;;5047303;28;20454;-76
2021/04/21 08:52:08;;;;;;;12.50;10.47;;;15.90;99.90;;;;;;5045456;28;20455;-79
2021/04/21 08:54:36;;;;;;;19.67;10.87;;;16.00;99.90;;;;;;5045725;28;20940;-77
2021/04/21 08:57:04;;;;;;;14.77;11.30;;;16.00;99.90;;;;;;5056846;28;20460;-78
2021/04/21 08:59:31;;;;;;;16.90;11.30;;;16.10;99.90;;;;;;5044209;28;20451;-78
2021/04/21 09:01:58;;;;;;;13.70;11.50;;;16.00;99.90;;;;;;5046357;28;20476;-77
2021/04/21 09:04:25;;;;;;;13.33;11.10;;;16.10;99.90;;;;;;5045423;28;20905;-78
2021/04/21 09:06:53;;;;;;;12.23;10.23;;;16.10;99.90;;;;;;5052155;28;20457;-78
2021/04/21 09:09:21;;;;;;;13.67;10.40;;;16.20;99.90;;;;;;5057988;28;20451;-78
2021/04/21 09:11:52;;;;;;;14.13;11.33;;;16.30;99.90;;;;;;5042246;28;20448;-76
2021/04/21 09:14:19;;;;;;;11.83;10.03;;;16.10;99.80;;;;;;5052668;28;20498;-77
2021/04/21 09:16:46;;;;;;;14.20;11.30;;;16.00;99.20;;;;;;5043408;28;20986;-79
2021/04/21 09:19:15;;;;;;;10.53;9.43;;;16.00;99.60;;;;;;5057402;28;20482;-78
2021/04/21 09:21:43;;;;;;;12.13;10.13;;;16.10;99.20;;;;;;5044156;28;20829;-77
2021/04/21 09:24:12;;;;;;;11.53;9.77;;;16.20;99.70;;;;;;5047943;28;20483;-79
2021/04/21 09:26:40;;;;;;;13.23;10.10;;;16.30;99.30;;;;;;5041491;28;20538;-78
2021/04/21 09:29:07;;;;;;;12.63;9.03;;;16.40;99.90;;;;;;5053170;28;20458;-77
2021/04/21 09:31:35;;;;;;;16.40;10.67;;;16.50;99.90;;;;;;5048435;28;20467;-76
2021/04/21 09:34:11;;;;;;;8.50;7.47;;;16.60;99.90;;;;;;5050560;28;20906;-75
2021/04/21 09:36:41;;;;;;;8.13;7.30;;;16.70;99.90;;;;;;5051480;28;20978;-74
2021/04/21 09:39:13;;;;;;;9.47;8.37;;;16.80;99.90;;;;;;5050776;28;21011;-76
2021/04/21 09:41:43;;;;;;;9.30;8.10;;;16.80;99.90;;;;;;5047203;28;20454;-79
2021/04/21 09:44:15;;;;;;;10.80;9.00;;;16.80;99.80;;;;;;5044337;28;20467;-76
2021/04/21 09:46:43;;;;;;;10.90;8.80;;;16.70;99.40;;;;;;5046813;28;20471;-75
2021/04/21 09:49:34;;;;;;;9.20;8.30;;;16.70;97.70;;;;;;5042912;28;21352;-75
2021/04/21 09:52:22;;;;;;;10.53;8.50;;;16.70;98.70;;;;;;5049324;28;20477;-75
2021/04/21 09:54:51;;;;;;;8.53;7.60;;;16.80;99.50;;;;;;5044830;28;21002;-76
2021/04/21 09:57:25;;;;;;;8.30;6.93;;;16.80;99.20;;;;;;5048172;28;20457;-75
2021/04/21 09:59:58;;;;;;;10.73;8.20;;;16.80;94.40;;;;;;5052247;28;20473;-77
2021/04/21 10:02:33;;;;;;;9.87;8.90;;;16.80;92.60;;;;;;5044270;28;20856;-78
2021/04/21 10:05:24;;;;;;;10.90;9.87;;;16.90;93.00;;;;;;5046260;28;20483;-77
2021/04/21 10:08:14;;;;;;;10.07;9.00;;;16.80;93.10;;;;;;5051487;28;21010;-78
2021/04/21 10:10:43;;;;;;;10.43;9.20;;;16.80;99.90;;;;;;5041315;28;20886;-77
2021/04/21 10:13:19;;;;;;;10.67;9.53;;;16.70;94.90;;;;;;5040569;28;20461;-78
2021/04/21 10:16:07;;;;;;;10.90;9.80;;;16.70;95.50;;;;;;5042388;28;20452;-77
2021/04/21 10:18:35;;;;;;;11.53;10.30;;;16.70;95.20;;;;;;5047395;28;20445;-80
2021/04/21 10:21:04;;;;;;;12.13;9.53;;;16.70;95.30;;;;;;5053602;28;20443;-78
2021/04/21 10:23:32;;;;;;;10.87;9.23;;;16.70;96.20;;;;;;5055278;28;20908;-77
2021/04/21 10:26:04;;;;;;;9.40;7.30;;;16.70;97.00;;;;;;5049623;28;20525;-77
2021/04/21 10:28:33;;;;;;;12.30;9.40;;;17.00;97.80;;;;;;5042923;28;20451;-76
2021/04/21 10:31:01;;;;;;;11.97;9.50;;;16.70;96.50;;;;;;5055902;28;21388;-77
2021/04/21 10:33:30;;;;;;;14.93;8.83;;;16.70;97.00;;;;;;5046693;28;21072;-77
2021/04/21 10:35:57;;;;;;;12.90;9.00;;;16.70;96.00;;;;;;5046746;28;20474;-76
2021/04/21 10:38:30;;;;;;;12.33;9.03;;;16.70;96.30;;;;;;5054185;28;20460;-77
2021/04/21 10:41:22;;;;;;;13.13;9.17;;;16.70;97.70;;;;;;5047092;28;20471;-77
2021/04/21 10:43:51;;;;;;;9.80;7.60;;;16.70;93.70;;;;;;5053089;28;20490;-77
2021/04/21 10:46:18;;;;;;;9.30;7.10;;;16.70;91.90;;;;;;5043788;28;20526;-77
2021/04/21 10:48:46;;;;;;;10.37;7.87;;;16.70;92.20;;;;;;5043049;28;21092;-78
2021/04/21 10:51:37;;;;;;;11.73;8.40;;;16.80;93.30;;;;;;5047561;28;20486;-78
2021/04/21 10:54:06;;;;;;;8.03;6.93;;;16.90;92.80;;;;;;5050113;28;20487;-77
2021/04/21 10:56:34;;;;;;;8.55;7.60;;;17.00;97.10;;;;;;5042967;28;20448;-77
2021/04/21 10:59:03;;;;;;;61.23;29.03;;;17.30;95.80;;;;;;5046819;28;20208;-77
2021/04/21 11:01:35;;;;;;;11.27;9.10;;;17.40;97.00;;;;;;5044084;28;20510;-78
2021/04/21 11:04:04;;;;;;;14.10;10.20;;;17.50;94.20;;;;;;5044672;28;20486;-76
2021/04/21 11:06:48;;;;;;;8.63;7.50;;;17.50;91.90;;;;;;5046493;28;20460;-74
2021/04/21 11:09:19;;;;;;;11.23;8.17;;;17.50;93.20;;;;;;5046064;28;20452;-76
2021/04/21 11:11:49;;;;;;;11.50;8.67;;;17.50;90.30;;;;;;5045539;28;20870;-74
2021/04/21 11:14:38;;;;;;;8.37;7.30;;;17.50;93.50;;;;;;5048752;28;20471;-75
2021/04/21 11:17:06;;;;;;;9.33;7.50;;;17.50;91.10;;;;;;5048695;28;20452;-75
2021/04/21 11:19:40;;;;;;;8.47;7.53;;;17.50;90.80;;;;;;5047733;28;20554;-73
2021/04/21 11:22:26;;;;;;;9.80;7.53;;;17.50;85.60;;;;;;5046349;28;21371;-75
2021/04/21 11:25:25;;;;;;;9.87;6.80;;;17.50;83.30;;;;;;5044559;28;20534;-75
2021/04/21 11:27:54;;;;;;;9.87;8.10;;;17.50;84.20;;;;;;5051801;28;20456;-76
2021/04/21 11:30:55;;;;;;;8.20;7.40;;;17.60;85.20;;;;;;5046763;28;20453;-76
2021/04/21 11:33:59;;;;;;;9.07;8.18;;;17.60;81.10;;;;;;5048020;28;20426;-77
2021/04/21 11:36:50;;;;;;;9.82;8.82;;;17.70;79.40;;;;;;5046429;28;20522;-79
2021/04/21 11:39:57;;;;;;;9.50;8.50;;;17.50;70.90;;;;;;5051748;28;20220;-81
2021/04/21 11:42:32;;;;;;;10.10;8.80;;;17.50;71.30;;;;;;5055658;28;20451;-79
2021/04/21 11:45:01;;;;;;;9.37;7.47;;;17.50;70.80;;;;;;5053688;28;20211;-80
2021/04/21 11:47:35;;;;;;;10.07;7.50;;;17.40;71.50;;;;;;5050775;28;20468;-81
2021/04/21 11:50:12;;;;;;;7.33;6.50;;;17.40;67.30;;;;;;5053551;28;20542;-79
2021/04/21 11:52:58;;;;;;;7.30;6.33;;;17.50;69.00;;;;;;5051955;28;20449;-80
2021/04/21 11:55:29;;;;;;;7.43;6.57;;;17.40;63.50;;;;;;5043150;28;20470;-80
2021/04/21 11:57:59;;;;;;;10.00;7.57;;;17.40;62.10;;;;;;5043711;28;21218;-80
2021/04/21 12:00:29;;;;;;;10.53;6.83;;;17.40;64.70;;;;;;5056243;28;20456;-81
2021/04/21 12:02:59;;;;;;;8.13;6.67;;;17.30;64.90;;;;;;5060926;28;20490;-80
2021/04/21 12:05:32;;;;;;;8.73;7.40;;;17.40;65.00;;;;;;5047093;28;20449;-82
2021/04/21 12:08:02;;;;;;;7.67;6.97;;;17.50;68.80;;;;;;5054230;28;20197;-80
2021/04/21 12:10:33;;;;;;;10.03;7.83;;;17.50;69.10;;;;;;5057371;28;20467;-81
2021/04/21 12:13:14;;;;;;;8.77;7.20;;;17.50;69.00;;;;;;5051727;28;20470;-80
2021/04/21 12:15:42;;;;;;;8.63;6.97;;;17.50;66.50;;;;;;5045677;28;20559;-80
2021/04/21 12:18:11;;;;;;;6.80;6.10;;;17.50;68.90;;;;;;5060200;28;20548;-81
2021/04/21 12:20:38;;;;;;;13.55;9.02;;;17.60;68.90;;;;;;5049766;28;20946;-82
2021/04/21 12:23:06;;;;;;;8.80;7.57;;;17.60;72.70;;;;;;5051084;28;20300;-81
2021/04/21 12:25:33;;;;;;;7.87;7.07;;;17.60;74.60;;;;;;5045222;28;20472;-80
2021/04/21 12:28:03;;;;;;;8.87;7.87;;;17.60;72.00;;;;;;5047794;28;20845;-81
2021/04/21 12:30:31;;;;;;;15.60;8.60;;;17.60;73.10;;;;;;5060584;28;20456;-78
2021/04/21 12:33:16;;;;;;;10.33;7.30;;;17.70;72.70;;;;;;5045977;28;20979;-81
2021/04/21 12:35:44;;;;;;;7.93;6.47;;;17.70;74.20;;;;;;5049717;28;21053;-79
2021/04/21 12:38:11;;;;;;;9.60;7.60;;;17.70;72.90;;;;;;5053355;28;20553;-80
2021/04/21 12:40:38;;;;;;;9.05;8.15;;;17.70;69.20;;;;;;5047922;28;20971;-80
2021/04/21 12:43:12;;;;;;;8.90;8.07;;;17.70;68.10;;;;;;5043953;28;20817;-81
2021/04/21 12:45:40;;;;;;;9.10;7.40;;;17.80;67.50;;;;;;5051650;28;20475;-82
2021/04/21 12:48:26;;;;;;;11.07;6.87;;;17.70;69.30;;;;;;5048019;28;20456;-79
2021/04/21 12:50:55;;;;;;;9.10;6.57;;;17.70;64.30;;;;;;5051704;28;20460;-80
2021/04/21 12:53:24;;;;;;;7.23;6.53;;;17.70;64.60;;;;;;5042922;28;20450;-82
2021/04/21 12:56:04;;;;;;;7.80;6.90;;;17.70;64.80;;;;;;5054061;28;20469;-82
2021/04/21 12:58:37;;;;;;;9.13;8.17;;;17.70;66.40;;;;;;5044006;28;20474;-79
2021/04/21 13:01:35;;;;;;;8.50;7.30;;;17.60;63.90;;;;;;5059637;28;20534;-81
2021/04/21 13:04:05;;;;;;;9.27;8.37;;;17.60;63.20;;;;;;5054841;28;20569;-82
2021/04/21 13:06:37;;;;;;;9.57;7.60;;;17.60;60.60;;;;;;5040686;28;20464;-81
2021/04/21 13:09:07;;;;;;;10.27;7.30;;;17.50;56.30;;;;;;5044755;28;20714;-79
2021/04/21 13:11:34;;;;;;;11.90;7.47;;;17.50;56.00;;;;;;5044317;28;20492;-81
2021/04/21 13:14:02;;;;;;;8.90;7.43;;;17.50;57.90;;;;;;5044956;28;20647;-82
2021/04/21 13:16:31;;;;;;;8.83;7.70;;;17.50;58.30;;;;;;5066393;28;20466;-83